createdAt,value
2018-11-21T00:00:40.647Z,77
2018-11-21T00:01:50.896Z,77
2018-11-21T00:03:01.017Z,77
2018-11-21T00:04:11.252Z,77
2018-11-21T00:05:21.377Z,77
2018-11-21T00:06:31.723Z,77
2018-11-21T00:07:41.968Z,77
2018-11-21T00:08:52.149Z,77
2018-11-21T00:10:02.333Z,77
2018-11-21T00:11:12.491Z,77
2018-11-21T00:12:22.627Z,77
2018-11-21T00:13:32.828Z,77
2018-11-21T00:14:42.912Z,77
2018-11-21T00:15:53.104Z,77
2018-11-21T00:17:03.257Z,77
2018-11-21T00:18:13.291Z,77
2018-11-21T00:19:23.364Z,76
2018-11-21T00:20:33.546Z,76
2018-11-21T00:21:43.672Z,77
2018-11-21T00:22:53.868Z,77
2018-11-21T00:24:04.112Z,77
2018-11-21T00:25:14.720Z,77
2018-11-21T00:26:24.915Z,76
2018-11-21T00:27:35.024Z,76
2018-11-21T00:28:45.070Z,76
2018-11-21T00:29:55.314Z,77
2018-11-21T00:31:05.384Z,77
2018-11-21T00:32:15.613Z,77
2018-11-21T00:33:25.820Z,77
2018-11-21T00:34:36.191Z,77
2018-11-21T00:35:46.299Z,77
2018-11-21T00:36:56.578Z,77
2018-11-21T00:38:06.697Z,77
2018-11-21T00:39:16.812Z,76
2018-11-21T00:40:26.856Z,76
2018-11-21T00:41:36.922Z,76
2018-11-21T00:42:48.242Z,76
2018-11-21T00:45:10.468Z,76
2018-11-21T00:46:11.769Z,76
2018-11-21T00:47:21.962Z,76
2018-11-21T00:48:32.043Z,76
2018-11-21T00:49:42.190Z,76
2018-11-21T00:50:52.308Z,76
2018-11-21T00:52:02.707Z,76
2018-11-21T00:53:12.748Z,76
2018-11-21T00:54:22.880Z,76
2018-11-21T00:55:33.269Z,76
2018-11-21T00:56:43.524Z,76
2018-11-21T00:57:53.711Z,76
2018-11-21T00:59:03.786Z,76
2018-11-21T01:00:13.884Z,76
2018-11-21T01:01:24.036Z,76
2018-11-21T01:02:34.334Z,76
2018-11-21T01:03:44.460Z,76
2018-11-21T01:04:54.753Z,76
2018-11-21T01:06:05.152Z,76
2018-11-21T01:07:15.235Z,76
2018-11-21T01:08:25.365Z,76
2018-11-21T01:09:35.648Z,76
2018-11-21T01:10:45.853Z,76
2018-11-21T01:11:55.921Z,76
2018-11-21T01:13:06.029Z,76
2018-11-21T01:14:16.330Z,76
2018-11-21T01:15:26.541Z,76
2018-11-21T01:16:36.627Z,76
2018-11-21T01:17:46.852Z,76
2018-11-21T01:18:57.005Z,76
2018-11-21T01:20:07.160Z,76
2018-11-21T01:21:17.314Z,76
2018-11-21T01:22:27.456Z,76
2018-11-21T01:23:37.695Z,76
2018-11-21T01:24:47.742Z,76
2018-11-21T01:25:57.939Z,76
2018-11-21T01:27:08.259Z,76
2018-11-21T01:28:18.327Z,76
2018-11-21T01:29:28.460Z,76
2018-11-21T01:30:38.648Z,76
2018-11-21T01:31:48.908Z,76
2018-11-21T01:32:59.151Z,76
2018-11-21T01:34:09.216Z,76
2018-11-21T01:35:19.457Z,76
2018-11-21T01:36:29.547Z,76
2018-11-21T01:37:39.939Z,76
2018-11-21T01:38:50.017Z,75
2018-11-21T01:40:00.058Z,76
2018-11-21T01:41:10.163Z,75
2018-11-21T01:42:20.407Z,76
2018-11-21T01:43:30.541Z,76
2018-11-21T01:44:40.669Z,76
2018-11-21T01:45:50.840Z,76
2018-11-21T01:47:00.928Z,75
2018-11-21T01:48:11.103Z,75
2018-11-21T01:49:21.360Z,75
2018-11-21T01:50:31.579Z,75
2018-11-21T01:51:41.636Z,75
2018-11-21T01:52:51.907Z,75
2018-11-21T01:54:01.981Z,75
2018-11-21T01:55:12.069Z,75
2018-11-21T01:56:22.220Z,75
2018-11-21T01:57:32.373Z,76
2018-11-21T01:58:42.526Z,76
2018-11-21T01:59:52.644Z,75
2018-11-21T02:01:02.912Z,75
2018-11-21T02:02:13.228Z,75
2018-11-21T02:03:23.491Z,75
2018-11-21T02:04:33.548Z,75
2018-11-21T02:05:43.771Z,75
2018-11-21T02:06:53.950Z,75
2018-11-21T02:08:04.434Z,75
2018-11-21T02:09:14.747Z,75
2018-11-21T02:10:24.868Z,75
2018-11-21T02:11:34.901Z,75
2018-11-21T02:12:45.034Z,75
2018-11-21T02:13:55.124Z,75
2018-11-21T02:15:05.270Z,75
2018-11-21T02:16:15.354Z,75
2018-11-21T02:17:25.601Z,75
2018-11-21T02:18:35.677Z,75
2018-11-21T02:19:45.762Z,75
2018-11-21T02:20:55.923Z,75
2018-11-21T02:22:06.231Z,75
2018-11-21T02:23:16.358Z,75
2018-11-21T02:24:26.433Z,75
2018-11-21T02:25:36.741Z,75
2018-11-21T02:26:47.127Z,75
2018-11-21T02:27:57.205Z,75
2018-11-21T02:29:07.450Z,75
2018-11-21T02:30:17.661Z,75
2018-11-21T02:31:27.837Z,75
2018-11-21T02:32:37.990Z,75
2018-11-21T02:33:48.061Z,75
2018-11-21T02:34:58.289Z,75
2018-11-21T02:36:08.362Z,75
2018-11-21T02:37:18.517Z,75
2018-11-21T02:38:28.737Z,75
2018-11-21T02:39:38.961Z,75
2018-11-21T02:40:49.139Z,75
2018-11-21T02:41:59.259Z,75
2018-11-21T02:43:09.338Z,75
2018-11-21T02:44:19.413Z,75
2018-11-21T02:45:29.538Z,75
2018-11-21T02:46:39.818Z,75
2018-11-21T02:47:50.045Z,75
2018-11-21T02:49:00.253Z,75
2018-11-21T02:50:10.400Z,75
2018-11-21T02:51:20.538Z,75
2018-11-21T02:52:30.711Z,75
2018-11-21T02:53:40.952Z,75
2018-11-21T02:54:51.013Z,75
2018-11-21T02:56:01.199Z,75
2018-11-21T02:57:11.235Z,75
2018-11-21T02:58:21.337Z,75
2018-11-21T02:59:31.447Z,75
2018-11-21T03:00:41.830Z,75
2018-11-21T03:01:51.993Z,75
2018-11-21T03:03:02.133Z,75
2018-11-21T03:04:12.240Z,75
2018-11-21T03:05:22.399Z,75
2018-11-21T03:06:32.568Z,75
2018-11-21T03:07:42.813Z,75
2018-11-21T03:08:53.104Z,75
2018-11-21T03:10:03.343Z,75
2018-11-21T03:11:13.618Z,75
2018-11-21T03:12:23.706Z,75
2018-11-21T03:13:33.786Z,75
2018-11-21T03:14:44.048Z,75
2018-11-21T03:15:54.136Z,75
2018-11-21T03:17:04.322Z,75
2018-11-21T03:18:14.504Z,75
2018-11-21T03:19:24.654Z,76
2018-11-21T03:20:34.853Z,75
2018-11-21T03:21:44.907Z,75
2018-11-21T03:22:55.222Z,76
2018-11-21T03:24:05.384Z,76
2018-11-21T03:25:15.491Z,76
2018-11-21T03:26:25.616Z,76
2018-11-21T03:27:35.814Z,76
2018-11-21T03:28:45.900Z,75
2018-11-21T03:29:55.973Z,75
2018-11-21T03:31:06.203Z,76
2018-11-21T03:32:16.348Z,75
2018-11-21T03:33:26.443Z,76
2018-11-21T03:34:36.805Z,76
2018-11-21T03:35:47.133Z,76
2018-11-21T03:36:57.329Z,76
2018-11-21T03:38:07.434Z,76
2018-11-21T03:39:18.070Z,76
2018-11-21T03:40:28.134Z,75
2018-11-21T03:41:38.515Z,76
2018-11-21T03:42:48.680Z,76
2018-11-21T03:43:58.801Z,76
2018-11-21T03:45:08.894Z,76
2018-11-21T03:47:48.871Z,76
2018-11-21T03:50:28.542Z,76
2018-11-21T03:53:08.420Z,76
2018-11-21T03:55:47.990Z,76
2018-11-21T03:58:28.150Z,76
2018-11-21T04:01:07.891Z,76
2018-11-21T04:03:48.141Z,76
2018-11-21T04:06:28.180Z,76
2018-11-21T04:09:08.323Z,76
2018-11-21T04:11:47.985Z,76
2018-11-21T04:18:08.617Z,76
2018-11-21T04:20:48.458Z,76
2018-11-21T04:23:28.203Z,76
2018-11-21T04:26:07.981Z,76
2018-11-21T04:36:48.006Z,77
2018-11-21T04:47:34.693Z,77
2018-11-21T04:48:35.944Z,77
2018-11-21T04:49:46.033Z,77
2018-11-21T04:50:56.278Z,77
2018-11-21T04:52:06.461Z,77
2018-11-21T04:53:16.506Z,77
2018-11-21T04:54:26.683Z,77
2018-11-21T04:55:36.911Z,77
2018-11-21T04:56:46.934Z,77
2018-11-21T04:57:57.289Z,77
2018-11-21T04:59:07.289Z,77
2018-11-21T05:00:17.439Z,77
2018-11-21T05:01:27.622Z,77
2018-11-21T05:02:37.836Z,77
2018-11-21T05:03:48.039Z,77
2018-11-21T05:04:58.152Z,77
2018-11-21T05:06:08.454Z,77
2018-11-21T05:07:18.628Z,77
2018-11-21T05:08:28.809Z,77
2018-11-21T05:09:39.009Z,77
2018-11-21T05:10:49.069Z,77
2018-11-21T05:11:59.198Z,77
2018-11-21T05:13:09.413Z,77
2018-11-21T05:14:19.455Z,77
2018-11-21T05:15:29.580Z,77
2018-11-21T05:18:09.159Z,77
2018-11-21T05:20:48.755Z,77
2018-11-21T05:23:28.604Z,77
2018-11-21T05:26:08.492Z,77
2018-11-21T05:29:49.746Z,77
2018-11-21T05:43:09.288Z,77
2018-11-21T05:46:28.812Z,77
2018-11-21T05:48:48.540Z,77
2018-11-21T05:51:28.964Z,77
2018-11-21T05:54:08.871Z,78
2018-11-21T05:56:48.582Z,78
2018-11-21T06:02:09.161Z,78
2018-11-21T06:04:49.072Z,78
2018-11-21T06:06:29.165Z,78
2018-11-21T06:09:08.925Z,78
2018-11-21T06:11:48.832Z,78
2018-11-21T06:18:42.210Z,78
2018-11-21T06:19:52.361Z,78
2018-11-21T06:21:02.730Z,78
2018-11-21T06:22:12.820Z,78
2018-11-21T06:23:23.046Z,78
2018-11-21T06:24:33.353Z,78
2018-11-21T06:25:43.672Z,78
2018-11-21T06:26:53.902Z,78
2018-11-21T06:28:04.046Z,78
2018-11-21T06:29:14.157Z,78
2018-11-21T06:30:24.300Z,78
2018-11-21T06:31:34.598Z,78
2018-11-21T06:32:44.773Z,78
2018-11-21T06:33:54.956Z,78
2018-11-21T06:35:05.152Z,78
2018-11-21T06:36:15.418Z,78
2018-11-21T06:37:25.693Z,78
2018-11-21T06:38:35.949Z,78
2018-11-21T06:39:46.034Z,78
2018-11-21T06:40:56.191Z,78
2018-11-21T06:42:06.277Z,78
2018-11-21T06:43:16.365Z,78
2018-11-21T06:44:26.490Z,78
2018-11-21T06:45:36.509Z,78
2018-11-21T06:46:46.787Z,78
2018-11-21T06:47:56.950Z,78
2018-11-21T06:49:07.191Z,78
2018-11-21T06:50:17.394Z,78
2018-11-21T06:51:27.485Z,78
2018-11-21T06:54:57.978Z,78
2018-11-21T06:56:08.157Z,78
2018-11-21T06:57:18.345Z,78
2018-11-21T06:58:28.530Z,78
2018-11-21T06:59:38.752Z,78
2018-11-21T07:00:48.961Z,78
2018-11-21T07:01:59.267Z,78
2018-11-21T07:03:09.548Z,78
2018-11-21T07:04:19.638Z,78
2018-11-21T07:05:29.763Z,78
2018-11-21T07:06:39.959Z,78
2018-11-21T07:07:50.225Z,78
2018-11-21T07:09:00.377Z,78
2018-11-21T07:10:10.702Z,78
2018-11-21T07:11:20.930Z,78
2018-11-21T07:12:31.152Z,78
2018-11-21T07:13:41.293Z,78
2018-11-21T07:14:51.391Z,78
2018-11-21T07:16:01.663Z,78
2018-11-21T07:17:11.801Z,78
2018-11-21T07:18:21.972Z,78
2018-11-21T07:19:32.035Z,78
2018-11-21T07:20:42.439Z,78
2018-11-21T07:21:52.625Z,78
2018-11-21T07:23:02.791Z,78
2018-11-21T07:24:13.039Z,78
2018-11-21T07:25:23.322Z,78
2018-11-21T07:32:22.724Z,79
2018-11-21T07:34:42.561Z,78
2018-11-21T07:37:23.266Z,79
2018-11-21T07:41:42.503Z,79
2018-11-21T07:44:22.391Z,79
2018-11-21T07:47:03.123Z,79
2018-11-21T07:49:22.296Z,79
2018-11-21T07:52:02.455Z,79
2018-11-21T07:54:42.453Z,79
2018-11-21T07:57:22.556Z,79
2018-11-21T08:00:02.712Z,79
2018-11-21T08:02:43.124Z,79
2018-11-21T08:05:23.179Z,79
2018-11-21T08:06:02.437Z,79
2018-11-21T08:08:42.892Z,79
2018-11-21T08:11:23.163Z,79
2018-11-21T08:14:03.052Z,79
2018-11-21T08:16:43.203Z,80
2018-11-21T08:19:23.043Z,79
2018-11-21T08:23:42.225Z,80
2018-11-21T08:25:42.335Z,80
2018-11-21T08:27:44.712Z,80
2018-11-21T08:28:46.054Z,80
2018-11-21T08:29:56.270Z,80
2018-11-21T08:31:06.614Z,80
2018-11-21T08:32:16.927Z,80
2018-11-21T08:33:33.608Z,80
2018-11-21T08:36:58.726Z,80
2018-11-21T08:38:09.005Z,80
2018-11-21T08:39:19.211Z,79
2018-11-21T08:40:29.410Z,79
2018-11-21T08:41:39.725Z,79
2018-11-21T08:42:49.946Z,79
2018-11-21T08:44:00.310Z,79
2018-11-21T08:45:10.363Z,79
2018-11-21T08:46:20.620Z,79
2018-11-21T08:47:30.943Z,79
2018-11-21T08:48:41.138Z,79
2018-11-21T08:49:51.563Z,79
2018-11-21T08:51:01.799Z,79
2018-11-21T08:52:11.993Z,79
2018-11-21T08:53:22.169Z,79
2018-11-21T08:54:32.375Z,79
2018-11-21T08:55:42.557Z,79
2018-11-21T08:56:52.836Z,79
2018-11-21T08:58:03.065Z,79
2018-11-21T08:59:13.397Z,79
2018-11-21T09:00:23.699Z,79
2018-11-21T09:01:35.220Z,80
2018-11-21T09:03:59.119Z,79
2018-11-21T09:05:00.636Z,79
2018-11-21T09:06:11.054Z,79
2018-11-21T09:07:21.563Z,79
2018-11-21T09:08:31.920Z,79
2018-11-21T09:09:42.190Z,79
2018-11-21T09:10:52.737Z,79
2018-11-21T09:12:03.013Z,79
2018-11-21T09:14:30.765Z,79
2018-11-21T09:15:32.145Z,79
2018-11-21T09:16:42.606Z,79
2018-11-21T09:17:52.929Z,79
2018-11-21T09:19:03.277Z,79
2018-11-21T09:20:13.594Z,79
2018-11-21T09:21:24.073Z,79
2018-11-21T09:22:34.294Z,79
2018-11-21T09:23:44.503Z,79
2018-11-21T09:24:54.699Z,79
2018-11-21T09:26:05.030Z,79
2018-11-21T09:27:15.455Z,79
2018-11-21T09:28:25.701Z,79
2018-11-21T09:29:35.963Z,79
2018-11-21T09:30:46.167Z,79
2018-11-21T09:31:56.476Z,79
2018-11-21T09:33:06.892Z,79
2018-11-21T09:34:17.293Z,79
2018-11-21T09:35:27.634Z,79
2018-11-21T09:36:37.964Z,79
2018-11-21T09:37:48.260Z,79
2018-11-21T09:38:58.512Z,79
2018-11-21T09:40:08.708Z,79
2018-11-21T09:41:18.968Z,79
2018-11-21T09:42:29.205Z,79
2018-11-21T09:43:39.738Z,79
2018-11-21T09:44:49.955Z,79
2018-11-21T09:46:00.389Z,79
2018-11-21T09:47:10.745Z,79
2018-11-21T09:48:20.948Z,79
2018-11-21T09:49:31.108Z,79
2018-11-21T09:50:41.232Z,79
2018-11-21T09:51:51.499Z,80
2018-11-21T09:53:01.821Z,80
2018-11-21T09:54:12.002Z,80
2018-11-21T09:55:22.324Z,80
2018-11-21T09:56:32.603Z,80
2018-11-21T09:57:42.750Z,80
2018-11-21T09:58:53.135Z,80
2018-11-21T10:00:03.434Z,80
2018-11-21T10:01:13.879Z,80
2018-11-21T10:02:24.360Z,80
2018-11-21T10:03:34.988Z,80
2018-11-21T10:04:45.217Z,80
2018-11-21T10:05:55.508Z,80
2018-11-21T10:07:06.014Z,80
2018-11-21T10:08:16.340Z,80
2018-11-21T10:09:26.616Z,80
2018-11-21T10:10:36.868Z,80
2018-11-21T10:11:47.149Z,80
2018-11-21T10:12:57.513Z,80
2018-11-21T10:15:22.571Z,81
2018-11-21T10:16:23.982Z,81
2018-11-21T10:17:34.215Z,81
2018-11-21T10:18:44.475Z,81
2018-11-21T10:19:54.782Z,81
2018-11-21T10:21:05.007Z,81
2018-11-21T10:22:15.298Z,81
2018-11-21T10:23:25.657Z,81
2018-11-21T10:24:35.891Z,81
2018-11-21T10:25:46.271Z,81
2018-11-21T10:26:56.521Z,81
2018-11-21T10:28:06.856Z,81
2018-11-21T10:29:17.042Z,81
2018-11-21T10:30:27.354Z,81
2018-11-21T10:31:37.702Z,81
2018-11-21T10:32:47.896Z,81
2018-11-21T10:33:58.077Z,81
2018-11-21T10:35:08.316Z,81
2018-11-21T10:36:18.691Z,81
2018-11-21T10:37:29.016Z,81
2018-11-21T10:38:39.656Z,81
2018-11-21T10:39:49.929Z,81
2018-11-21T10:41:00.483Z,81
2018-11-21T10:42:10.756Z,81
2018-11-21T10:43:20.990Z,81
2018-11-21T10:44:31.159Z,81
2018-11-21T10:45:41.611Z,81
2018-11-21T10:46:51.775Z,81
2018-11-21T10:48:02.112Z,81
2018-11-21T10:49:12.557Z,81
2018-11-21T10:50:22.868Z,81
2018-11-21T10:51:33.378Z,81
2018-11-21T10:52:43.574Z,81
2018-11-21T10:53:53.946Z,81
2018-11-21T10:55:04.208Z,81
2018-11-21T10:56:14.459Z,81
2018-11-21T10:57:24.744Z,81
2018-11-21T10:58:34.959Z,81
2018-11-21T10:59:45.245Z,81
2018-11-21T11:00:55.590Z,81
2018-11-21T11:02:05.990Z,81
2018-11-21T11:03:16.463Z,81
2018-11-21T11:04:26.962Z,81
2018-11-21T11:05:37.303Z,81
2018-11-21T11:06:47.767Z,81
2018-11-21T11:07:58.020Z,81
2018-11-21T11:09:08.366Z,80
2018-11-21T11:10:18.602Z,80
2018-11-21T11:11:28.901Z,80
2018-11-21T11:12:39.082Z,80
2018-11-21T11:13:49.738Z,80
2018-11-21T11:15:00.021Z,80
2018-11-21T11:16:10.358Z,80
2018-11-21T11:17:20.706Z,80
2018-11-21T11:18:30.989Z,80
2018-11-21T11:19:41.373Z,80
2018-11-21T11:20:51.775Z,80
2018-11-21T11:22:02.068Z,80
2018-11-21T11:23:12.873Z,80
2018-11-21T11:24:23.195Z,80
2018-11-21T11:25:33.579Z,80
2018-11-21T11:26:44.079Z,80
2018-11-21T11:27:54.272Z,80
2018-11-21T11:29:04.528Z,80
2018-11-21T11:30:14.767Z,80
2018-11-21T11:31:25.056Z,80
2018-11-21T11:32:35.468Z,80
2018-11-21T11:33:45.789Z,80
2018-11-21T11:34:56.030Z,80
2018-11-21T11:36:06.556Z,81
2018-11-21T11:37:16.862Z,80
2018-11-21T11:38:27.108Z,81
2018-11-21T11:39:37.375Z,80
2018-11-21T11:40:47.778Z,80
2018-11-21T11:41:57.992Z,80
2018-11-21T11:43:08.295Z,80
2018-11-21T11:44:18.747Z,80
2018-11-21T11:45:29.311Z,80
2018-11-21T11:46:39.645Z,80
2018-11-21T11:47:50.100Z,80
2018-11-21T11:49:00.512Z,80
2018-11-21T11:50:10.906Z,80
2018-11-21T11:51:21.254Z,80
2018-11-21T11:52:31.639Z,80
2018-11-21T11:53:41.864Z,80
2018-11-21T11:54:52.253Z,80
2018-11-21T11:56:02.455Z,80
2018-11-21T11:57:12.942Z,80
2018-11-21T11:58:23.638Z,80
2018-11-21T11:59:34.022Z,80
2018-11-21T12:00:44.335Z,80
2018-11-21T12:01:54.698Z,80
2018-11-21T12:03:05.176Z,80
2018-11-21T12:04:15.693Z,80
2018-11-21T12:05:26.057Z,80
2018-11-21T12:06:36.286Z,80
2018-11-21T12:07:46.575Z,80
2018-11-21T12:08:56.760Z,80
2018-11-21T12:10:06.976Z,80
2018-11-21T12:11:17.164Z,80
2018-11-21T12:12:27.521Z,79
2018-11-21T12:13:37.892Z,79
2018-11-21T12:14:48.247Z,79
2018-11-21T12:15:58.551Z,79
2018-11-21T12:17:08.773Z,80
2018-11-21T12:18:19.134Z,80
2018-11-21T12:19:29.416Z,79
2018-11-21T12:20:39.736Z,79
2018-11-21T12:21:50.213Z,79
2018-11-21T12:23:00.546Z,79
2018-11-21T12:24:11.009Z,79
2018-11-21T12:25:21.324Z,79
2018-11-21T12:26:31.875Z,79
2018-11-21T12:27:42.096Z,79
2018-11-21T12:28:52.393Z,79
2018-11-21T12:30:02.716Z,79
2018-11-21T12:31:13.062Z,79
2018-11-21T12:32:23.431Z,79
2018-11-21T12:33:33.657Z,79
2018-11-21T12:34:44.024Z,79
2018-11-21T12:35:54.317Z,79
2018-11-21T12:37:04.678Z,79
2018-11-21T12:38:14.942Z,79
2018-11-21T12:39:25.402Z,79
2018-11-21T12:40:35.703Z,79
2018-11-21T12:41:46.087Z,79
2018-11-21T12:42:56.510Z,79
2018-11-21T12:44:06.846Z,79
2018-11-21T12:45:17.253Z,79
2018-11-21T12:46:27.504Z,79
2018-11-21T12:47:37.898Z,79
2018-11-21T12:48:48.198Z,79
2018-11-21T12:49:58.456Z,79
2018-11-21T12:51:08.870Z,79
2018-11-21T12:52:19.140Z,79
2018-11-21T12:53:29.291Z,79
2018-11-21T12:54:39.601Z,79
2018-11-21T12:55:49.934Z,79
2018-11-21T12:57:00.439Z,79
2018-11-21T12:58:10.795Z,79
2018-11-21T12:59:21.167Z,79
2018-11-21T13:00:31.471Z,79
2018-11-21T13:01:41.837Z,79
2018-11-21T13:02:52.217Z,79
2018-11-21T13:04:02.637Z,79
2018-11-21T13:05:13.057Z,79
2018-11-21T13:06:23.442Z,79
2018-11-21T13:07:33.914Z,79
2018-11-21T13:08:44.263Z,79
2018-11-21T13:09:57.956Z,79
2018-11-21T13:12:22.137Z,78
2018-11-21T13:13:23.538Z,79
2018-11-21T13:14:33.822Z,78
2018-11-21T13:15:44.851Z,78
2018-11-21T13:18:08.351Z,79
2018-11-21T13:19:09.831Z,79
2018-11-21T13:20:20.284Z,79
2018-11-21T13:21:30.474Z,79
2018-11-21T13:22:40.881Z,79
2018-11-21T13:23:51.082Z,79
2018-11-21T13:25:01.544Z,79
2018-11-21T13:26:11.849Z,79
2018-11-21T13:27:22.364Z,79
2018-11-21T13:28:32.613Z,79
2018-11-21T13:29:42.834Z,79
2018-11-21T13:30:53.264Z,79
2018-11-21T13:32:03.510Z,79
2018-11-21T13:33:13.871Z,79
2018-11-21T13:34:24.104Z,79
2018-11-21T13:35:34.476Z,79
2018-11-21T13:36:44.690Z,80
2018-11-21T13:37:55.124Z,80
2018-11-21T13:39:05.545Z,80
2018-11-21T13:40:15.932Z,80
2018-11-21T13:41:26.207Z,80
2018-11-21T13:42:36.453Z,80
2018-11-21T13:43:46.704Z,80
2018-11-21T13:44:56.891Z,80
2018-11-21T13:46:07.248Z,80
2018-11-21T13:47:17.773Z,80
2018-11-21T13:48:28.031Z,80
2018-11-21T13:49:38.370Z,80
2018-11-21T13:50:48.697Z,80
2018-11-21T13:51:59.031Z,80
2018-11-21T13:53:09.199Z,80
2018-11-21T13:54:19.528Z,81
2018-11-21T13:55:29.698Z,81
2018-11-21T13:56:40.050Z,81
2018-11-21T13:57:50.417Z,81
2018-11-21T13:59:00.725Z,81
2018-11-21T14:00:10.928Z,81
2018-11-21T14:01:21.213Z,81
2018-11-21T14:02:31.537Z,81
2018-11-21T14:03:41.730Z,81
2018-11-21T14:04:52.220Z,81
2018-11-21T14:06:02.636Z,81
2018-11-21T14:07:13.030Z,81
2018-11-21T14:08:23.538Z,81
2018-11-21T14:09:33.867Z,81
2018-11-21T14:10:44.144Z,81
2018-11-21T14:11:54.327Z,81
2018-11-21T14:13:04.737Z,81
2018-11-21T14:14:14.946Z,81
2018-11-21T14:15:25.330Z,81
2018-11-21T14:16:35.805Z,81
2018-11-21T14:17:46.137Z,81
2018-11-21T14:18:56.398Z,81
2018-11-21T14:20:06.837Z,81
2018-11-21T14:21:17.065Z,81
2018-11-21T14:22:27.341Z,81
2018-11-21T14:23:37.454Z,81
2018-11-21T14:24:47.774Z,81
2018-11-21T14:25:58.554Z,81
2018-11-21T14:27:09.014Z,81
2018-11-21T14:28:19.226Z,81
2018-11-21T14:29:29.464Z,81
2018-11-21T14:30:39.728Z,81
2018-11-21T14:31:50.059Z,81
2018-11-21T14:33:00.482Z,81
2018-11-21T14:34:10.645Z,81
2018-11-21T14:35:21.213Z,81
2018-11-21T14:36:31.580Z,81
2018-11-21T14:43:31.105Z,81
2018-11-21T14:52:11.215Z,81
2018-11-21T14:56:31.088Z,81
2018-11-21T14:59:10.855Z,81
2018-11-21T15:01:51.078Z,81
2018-11-21T15:04:31.447Z,81
2018-11-21T15:06:11.221Z,81
2018-11-21T15:08:51.335Z,81
2018-11-21T15:15:50.804Z,81
2018-11-21T15:18:31.548Z,81
2018-11-21T15:26:50.940Z,81
2018-11-21T15:29:30.983Z,81
2018-11-21T15:33:50.478Z,81
2018-11-21T15:36:31.167Z,81
2018-11-21T15:39:11.548Z,81
2018-11-21T15:43:30.579Z,81
2018-11-21T15:46:11.409Z,81
2018-11-21T15:49:05.369Z,81
2018-11-21T15:50:15.783Z,81
2018-11-21T15:51:26.002Z,81
2018-11-21T15:52:36.283Z,81
2018-11-21T15:53:46.586Z,81
2018-11-21T15:54:56.801Z,81
2018-11-21T15:56:07.143Z,81
2018-11-21T15:57:17.395Z,81
2018-11-21T15:58:27.743Z,81
2018-11-21T15:59:37.981Z,81
2018-11-21T16:00:48.258Z,81
2018-11-21T16:01:58.593Z,81
2018-11-21T16:03:08.990Z,81
2018-11-21T16:04:19.877Z,81
2018-11-21T16:05:30.193Z,81
2018-11-21T16:06:40.638Z,81
2018-11-21T16:07:50.933Z,81
2018-11-21T16:09:01.412Z,81
2018-11-21T16:10:19.517Z,81
2018-11-21T16:10:51.479Z,81
2018-11-21T16:13:11.314Z,81
2018-11-21T16:15:11.521Z,81
2018-11-21T16:16:21.971Z,81
2018-11-21T16:17:32.456Z,81
2018-11-21T16:18:42.690Z,81
2018-11-21T16:19:53.028Z,81
2018-11-21T16:21:03.312Z,81
2018-11-21T16:22:13.710Z,81
2018-11-21T16:23:24.047Z,81
2018-11-21T16:24:34.321Z,81
2018-11-21T16:25:44.794Z,81
2018-11-21T16:26:54.978Z,81
2018-11-21T16:28:05.263Z,81
2018-11-21T16:29:15.502Z,81
2018-11-21T16:30:25.816Z,81
2018-11-21T16:31:36.377Z,81
2018-11-21T16:32:46.718Z,81
2018-11-21T16:33:57.071Z,81
2018-11-21T16:35:09.678Z,81
2018-11-21T16:37:35.467Z,81
2018-11-21T16:38:37.068Z,81
2018-11-21T16:39:47.371Z,81
2018-11-21T16:40:57.794Z,81
2018-11-21T16:42:08.100Z,81
2018-11-21T16:43:18.638Z,81
2018-11-21T16:44:28.795Z,81
2018-11-21T16:45:39.291Z,81
2018-11-21T16:46:49.746Z,81
2018-11-21T16:48:00.204Z,81
2018-11-21T16:49:10.406Z,81
2018-11-21T16:50:20.873Z,81
2018-11-21T16:51:31.052Z,81
2018-11-21T16:52:41.382Z,81
2018-11-21T16:53:51.637Z,81
2018-11-21T16:55:01.912Z,81
2018-11-21T16:56:12.423Z,81
2018-11-21T16:57:23.031Z,81
2018-11-21T16:58:33.271Z,81
2018-11-21T16:59:43.390Z,81
2018-11-21T17:00:53.662Z,81
2018-11-21T17:02:03.885Z,81
2018-11-21T17:03:14.370Z,81
2018-11-21T17:04:24.619Z,81
2018-11-21T17:05:35.102Z,81
2018-11-21T17:06:45.400Z,81
2018-11-21T17:07:55.720Z,81
2018-11-21T17:09:06.089Z,81
2018-11-21T17:10:16.325Z,81
2018-11-21T17:11:26.714Z,81
2018-11-21T17:12:37.023Z,81
2018-11-21T17:13:47.283Z,81
2018-11-21T17:14:57.642Z,81
2018-11-21T17:16:07.900Z,81
2018-11-21T17:17:18.240Z,81
2018-11-21T17:18:28.446Z,81
2018-11-21T17:19:38.674Z,81
2018-11-21T17:20:49.178Z,81
2018-11-21T17:21:59.595Z,81
2018-11-21T17:23:09.859Z,81
2018-11-21T17:24:20.286Z,81
2018-11-21T17:25:30.500Z,81
2018-11-21T17:26:41.363Z,81
2018-11-21T17:28:20.979Z,81
2018-11-21T17:31:21.046Z,81
2018-11-21T17:33:21.567Z,81
2018-11-21T17:34:31.893Z,81
2018-11-21T17:35:42.173Z,81
2018-11-21T17:36:52.408Z,81
2018-11-21T17:38:03.294Z,82
2018-11-21T17:39:13.597Z,82
2018-11-21T17:40:23.845Z,82
2018-11-21T17:41:34.025Z,82
2018-11-21T17:42:44.429Z,82
2018-11-21T17:43:54.703Z,82
2018-11-21T17:45:05.016Z,82
2018-11-21T17:46:15.441Z,83
2018-11-21T17:47:25.795Z,83
2018-11-21T17:48:36.357Z,83
2018-11-21T17:49:47.816Z,83
2018-11-21T17:52:11.644Z,84
2018-11-21T17:53:13.195Z,83
2018-11-21T17:54:23.774Z,84
2018-11-21T17:55:33.988Z,83
2018-11-21T17:56:44.326Z,83
2018-11-21T17:57:54.491Z,83
2018-11-21T17:59:04.729Z,83
2018-11-21T18:00:15.054Z,84
2018-11-21T18:01:25.435Z,84
2018-11-21T18:02:36.044Z,84
2018-11-21T18:03:46.583Z,84
2018-11-21T18:04:56.815Z,85
2018-11-21T18:06:07.038Z,84
2018-11-21T18:07:17.289Z,84
2018-11-21T18:08:27.529Z,85
2018-11-21T18:09:37.754Z,85
2018-11-21T18:10:47.914Z,85
2018-11-21T18:11:58.212Z,85
2018-11-21T18:13:08.446Z,85
2018-11-21T18:14:18.840Z,85
2018-11-21T18:15:29.059Z,85
2018-11-21T18:16:39.261Z,85
2018-11-21T18:19:19.223Z,85
2018-11-21T18:23:38.902Z,85
2018-11-21T18:26:19.065Z,85
2018-11-21T18:28:58.857Z,85
2018-11-21T18:41:18.182Z,85
2018-11-21T18:46:38.543Z,85
2018-11-21T18:49:18.773Z,85
2018-11-21T18:51:58.831Z,85
2018-11-21T18:54:38.639Z,85
2018-11-21T18:57:18.903Z,85
2018-11-21T18:59:58.673Z,85
2018-11-21T19:02:38.845Z,85
2018-11-21T19:05:18.959Z,85
2018-11-21T19:09:18.510Z,84
2018-11-21T19:11:58.613Z,84
2018-11-21T19:14:38.813Z,84
2018-11-21T19:19:17.740Z,84
2018-11-21T19:20:27.911Z,84
2018-11-21T19:21:38.108Z,84
2018-11-21T19:22:48.255Z,84
2018-11-21T19:23:58.583Z,84
2018-11-21T19:25:08.777Z,84
2018-11-21T19:26:19.032Z,84
2018-11-21T19:27:29.333Z,84
2018-11-21T19:28:39.709Z,84
2018-11-21T19:29:50.069Z,83
2018-11-21T19:31:00.382Z,83
2018-11-21T19:32:10.715Z,83
2018-11-21T19:33:20.879Z,83
2018-11-21T19:34:31.135Z,83
2018-11-21T19:35:41.527Z,83
2018-11-21T19:36:51.725Z,83
2018-11-21T19:38:02.035Z,83
2018-11-21T19:39:12.163Z,83
2018-11-21T19:40:22.456Z,84
2018-11-21T19:41:32.725Z,83
2018-11-21T19:42:43.310Z,83
2018-11-21T19:43:53.599Z,83
2018-11-21T19:45:03.790Z,83
2018-11-21T19:46:14.058Z,83
2018-11-21T19:47:24.544Z,83
2018-11-21T19:48:34.932Z,83
2018-11-21T19:49:45.367Z,83
2018-11-21T19:50:55.804Z,83
2018-11-21T19:52:06.061Z,83
2018-11-21T19:53:16.466Z,83
2018-11-21T19:54:26.710Z,83
2018-11-21T19:55:36.895Z,83
2018-11-21T19:56:47.159Z,83
2018-11-21T19:57:57.354Z,83
2018-11-21T19:59:07.471Z,83
2018-11-21T20:00:17.838Z,83
2018-11-21T20:01:28.013Z,83
2018-11-21T20:02:38.416Z,83
2018-11-21T20:03:48.790Z,83
2018-11-21T20:04:59.072Z,83
2018-11-21T20:06:09.580Z,83
2018-11-21T20:07:19.841Z,83
2018-11-21T20:08:30.056Z,83
2018-11-21T20:09:40.201Z,83
2018-11-21T20:10:50.494Z,83
2018-11-21T20:12:00.728Z,83
2018-11-21T20:13:11.661Z,83
2018-11-21T20:15:35.850Z,83
2018-11-21T20:16:37.186Z,83
2018-11-21T20:17:47.384Z,83
2018-11-21T20:18:57.640Z,83
2018-11-21T20:20:07.994Z,83
2018-11-21T20:21:18.170Z,83
2018-11-21T20:22:28.372Z,83
2018-11-21T20:23:38.586Z,83
2018-11-21T20:24:48.761Z,83
2018-11-21T20:27:12.843Z,83
2018-11-21T20:28:14.165Z,83
2018-11-21T20:29:24.475Z,83
2018-11-21T20:30:34.718Z,83
2018-11-21T20:31:44.890Z,83
2018-11-21T20:32:55.073Z,83
2018-11-21T20:34:05.253Z,83
2018-11-21T20:35:15.473Z,83
2018-11-21T20:36:26.044Z,83
2018-11-21T20:37:36.198Z,83
2018-11-21T20:38:46.475Z,83
2018-11-21T20:39:56.596Z,83